sensor_id;sensor_type;location;lat;lon;timestamp;temperature;humidity
79049;DHT22;68680;50.764;6.120;2024-02-26T00:00:10;6.10;99.90
79049;DHT22;68680;50.764;6.120;2024-02-26T00:02:36;6.10;99.90
79049;DHT22;68680;50.764;6.120;2024-02-26T00:05:02;6.00;99.90
79049;DHT22;68680;50.764;6.120;2024-02-26T00:07:29;6.00;99.90
79049;DHT22;68680;50.764;6.120;2024-02-26T00:09:56;5.90;99.90
79049;DHT22;68680;50.764;6.120;2024-02-26T00:12:21;5.90;99.90
79049;DHT22;68680;50.764;6.120;2024-02-26T00:14:47;5.90;99.90
79049;DHT22;68680;50.764;6.120;2024-02-26T00:17:13;5.90;99.90
79049;DHT22;68680;50.764;6.120;2024-02-26T00:19:39;5.80;99.90
79049;DHT22;68680;50.764;6.120;2024-02-26T00:22:05;5.70;99.90
79049;DHT22;68680;50.764;6.120;2024-02-26T00:24:31;5.70;99.90
79049;DHT22;68680;50.764;6.120;2024-02-26T00:26:59;5.70;99.90
79049;DHT22;68680;50.764;6.120;2024-02-26T00:29:25;5.70;99.90
79049;DHT22;68680;50.764;6.120;2024-02-26T00:31:51;5.70;99.90
79049;DHT22;68680;50.764;6.120;2024-02-26T00:34:17;5.70;99.90
79049;DHT22;68680;50.764;6.120;2024-02-26T00:36:43;5.60;99.90
79049;DHT22;68680;50.764;6.120;2024-02-26T00:39:08;5.70;99.90
79049;DHT22;68680;50.764;6.120;2024-02-26T00:41:38;5.60;99.90
79049;DHT22;68680;50.764;6.120;2024-02-26T00:44:07;5.60;99.90
79049;DHT22;68680;50.764;6.120;2024-02-26T00:46:32;5.60;99.90
79049;DHT22;68680;50.764;6.120;2024-02-26T00:48:58;5.60;99.90
79049;DHT22;68680;50.764;6.120;2024-02-26T00:51:24;5.60;99.90
79049;DHT22;68680;50.764;6.120;2024-02-26T00:53:50;5.50;99.90
79049;DHT22;68680;50.764;6.120;2024-02-26T00:56:16;5.50;99.90
79049;DHT22;68680;50.764;6.120;2024-02-26T00:58:41;5.50;99.90
79049;DHT22;68680;50.764;6.120;2024-02-26T01:01:08;5.50;99.90
79049;DHT22;68680;50.764;6.120;2024-02-26T01:03:34;5.50;99.90
79049;DHT22;68680;50.764;6.120;2024-02-26T01:06:00;5.40;99.90
79049;DHT22;68680;50.764;6.120;2024-02-26T01:08:26;5.40;99.90
79049;DHT22;68680;50.764;6.120;2024-02-26T01:10:52;5.40;99.90
79049;DHT22;68680;50.764;6.120;2024-02-26T01:13:18;5.40;99.90
79049;DHT22;68680;50.764;6.120;2024-02-26T01:15:43;5.40;99.90
79049;DHT22;68680;50.764;6.120;2024-02-26T01:18:11;5.40;99.90
79049;DHT22;68680;50.764;6.120;2024-02-26T01:20:37;5.50;99.90
79049;DHT22;68680;50.764;6.120;2024-02-26T01:23:03;5.40;99.90
79049;DHT22;68680;50.764;6.120;2024-02-26T01:25:29;5.50;99.90
79049;DHT22;68680;50.764;6.120;2024-02-26T01:27:55;5.40;99.90
79049;DHT22;68680;50.764;6.120;2024-02-26T01:30:20;5.50;99.90
79049;DHT22;68680;50.764;6.120;2024-02-26T01:32:46;5.50;99.90
79049;DHT22;68680;50.764;6.120;2024-02-26T01:35:13;5.40;99.90
79049;DHT22;68680;50.764;6.120;2024-02-26T01:37:39;5.40;99.90
79049;DHT22;68680;50.764;6.120;2024-02-26T01:40:06;5.40;99.90
79049;DHT22;68680;50.764;6.120;2024-02-26T01:42:32;5.40;99.90
79049;DHT22;68680;50.764;6.120;2024-02-26T01:44:58;5.50;99.90
79049;DHT22;68680;50.764;6.120;2024-02-26T01:47:25;5.40;99.90
79049;DHT22;68680;50.764;6.120;2024-02-26T01:49:53;5.40;99.90
79049;DHT22;68680;50.764;6.120;2024-02-26T01:52:21;5.40;99.90
79049;DHT22;68680;50.764;6.120;2024-02-26T01:54:46;5.50;99.90
79049;DHT22;68680;50.764;6.120;2024-02-26T01:57:13;5.40;99.90
79049;DHT22;68680;50.764;6.120;2024-02-26T01:59:40;5.40;99.90
79049;DHT22;68680;50.764;6.120;2024-02-26T02:02:07;5.40;99.90
79049;DHT22;68680;50.764;6.120;2024-02-26T02:04:35;5.40;99.90
79049;DHT22;68680;50.764;6.120;2024-02-26T02:07:02;5.40;99.90
79049;DHT22;68680;50.764;6.120;2024-02-26T02:09:31;5.40;99.90
79049;DHT22;68680;50.764;6.120;2024-02-26T02:11:58;5.40;99.90
79049;DHT22;68680;50.764;6.120;2024-02-26T02:14:25;5.40;99.90
79049;DHT22;68680;50.764;6.120;2024-02-26T02:16:51;5.40;99.90
79049;DHT22;68680;50.764;6.120;2024-02-26T02:19:17;5.40;99.90
79049;DHT22;68680;50.764;6.120;2024-02-26T02:21:44;5.40;99.90
79049;DHT22;68680;50.764;6.120;2024-02-26T02:24:09;5.30;99.90
79049;DHT22;68680;50.764;6.120;2024-02-26T02:26:35;5.30;99.90
79049;DHT22;68680;50.764;6.120;2024-02-26T02:29:02;5.40;99.90
79049;DHT22;68680;50.764;6.120;2024-02-26T02:31:28;5.30;99.90
79049;DHT22;68680;50.764;6.120;2024-02-26T02:33:56;5.30;99.90
79049;DHT22;68680;50.764;6.120;2024-02-26T02:36:22;5.40;99.90
79049;DHT22;68680;50.764;6.120;2024-02-26T02:38:52;5.40;99.90
79049;DHT22;68680;50.764;6.120;2024-02-26T02:41:18;5.40;99.90
79049;DHT22;68680;50.764;6.120;2024-02-26T02:43:44;5.30;99.90
79049;DHT22;68680;50.764;6.120;2024-02-26T02:46:10;5.30;99.90
79049;DHT22;68680;50.764;6.120;2024-02-26T02:48:35;5.30;99.90
79049;DHT22;68680;50.764;6.120;2024-02-26T02:51:01;5.30;99.90
79049;DHT22;68680;50.764;6.120;2024-02-26T02:53:27;5.30;99.90
79049;DHT22;68680;50.764;6.120;2024-02-26T02:55:54;5.30;99.90
79049;DHT22;68680;50.764;6.120;2024-02-26T02:58:20;5.30;99.90
79049;DHT22;68680;50.764;6.120;2024-02-26T03:00:46;5.30;99.90
79049;DHT22;68680;50.764;6.120;2024-02-26T03:03:11;5.30;99.90
79049;DHT22;68680;50.764;6.120;2024-02-26T03:05:37;5.30;99.90
79049;DHT22;68680;50.764;6.120;2024-02-26T03:08:04;5.30;99.90
79049;DHT22;68680;50.764;6.120;2024-02-26T03:10:30;5.30;99.90
79049;DHT22;68680;50.764;6.120;2024-02-26T03:12:57;5.30;99.90
79049;DHT22;68680;50.764;6.120;2024-02-26T03:15:22;5.20;99.90
79049;DHT22;68680;50.764;6.120;2024-02-26T03:17:48;5.30;99.90
79049;DHT22;68680;50.764;6.120;2024-02-26T03:20:14;5.20;99.90
79049;DHT22;68680;50.764;6.120;2024-02-26T03:22:40;5.20;99.90
79049;DHT22;68680;50.764;6.120;2024-02-26T03:25:06;5.20;99.90
79049;DHT22;68680;50.764;6.120;2024-02-26T03:27:33;5.20;99.90
79049;DHT22;68680;50.764;6.120;2024-02-26T03:30:00;5.20;99.90
79049;DHT22;68680;50.764;6.120;2024-02-26T03:32:26;5.20;99.90
79049;DHT22;68680;50.764;6.120;2024-02-26T03:34:51;5.20;99.90
79049;DHT22;68680;50.764;6.120;2024-02-26T03:37:17;5.20;99.90
79049;DHT22;68680;50.764;6.120;2024-02-26T03:39:43;5.20;99.90
79049;DHT22;68680;50.764;6.120;2024-02-26T03:42:09;5.20;99.90
79049;DHT22;68680;50.764;6.120;2024-02-26T03:44:35;5.20;99.90
79049;DHT22;68680;50.764;6.120;2024-02-26T03:47:02;5.20;99.90
79049;DHT22;68680;50.764;6.120;2024-02-26T03:49:27;5.20;99.90
79049;DHT22;68680;50.764;6.120;2024-02-26T03:51:53;5.20;99.90
79049;DHT22;68680;50.764;6.120;2024-02-26T03:54:19;5.20;99.90
79049;DHT22;68680;50.764;6.120;2024-02-26T03:56:45;5.20;99.90
79049;DHT22;68680;50.764;6.120;2024-02-26T03:59:10;5.20;99.90
79049;DHT22;68680;50.764;6.120;2024-02-26T04:01:36;5.20;99.90
79049;DHT22;68680;50.764;6.120;2024-02-26T04:04:03;5.20;99.90
79049;DHT22;68680;50.764;6.120;2024-02-26T04:06:29;5.20;99.90
79049;DHT22;68680;50.764;6.120;2024-02-26T04:08:55;5.20;99.90
79049;DHT22;68680;50.764;6.120;2024-02-26T04:11:21;5.20;99.90
79049;DHT22;68680;50.764;6.120;2024-02-26T04:13:47;5.20;99.90
79049;DHT22;68680;50.764;6.120;2024-02-26T04:16:12;5.20;99.90
79049;DHT22;68680;50.764;6.120;2024-02-26T04:18:38;5.10;99.90
79049;DHT22;68680;50.764;6.120;2024-02-26T04:21:05;5.20;99.90
79049;DHT22;68680;50.764;6.120;2024-02-26T04:23:31;5.10;99.90
79049;DHT22;68680;50.764;6.120;2024-02-26T04:25:57;5.20;99.90
79049;DHT22;68680;50.764;6.120;2024-02-26T04:28:23;5.20;99.90
79049;DHT22;68680;50.764;6.120;2024-02-26T04:30:48;5.20;99.90
79049;DHT22;68680;50.764;6.120;2024-02-26T04:33:14;5.20;99.90
79049;DHT22;68680;50.764;6.120;2024-02-26T04:35:40;5.10;99.90
79049;DHT22;68680;50.764;6.120;2024-02-26T04:38:07;5.10;99.90
79049;DHT22;68680;50.764;6.120;2024-02-26T04:40:33;5.10;99.90
79049;DHT22;68680;50.764;6.120;2024-02-26T04:42:59;5.10;99.90
79049;DHT22;68680;50.764;6.120;2024-02-26T04:45:24;5.10;99.90
79049;DHT22;68680;50.764;6.120;2024-02-26T04:47:50;5.10;99.90
79049;DHT22;68680;50.764;6.120;2024-02-26T04:50:16;5.10;99.90
79049;DHT22;68680;50.764;6.120;2024-02-26T04:52:42;5.10;99.90
79049;DHT22;68680;50.764;6.120;2024-02-26T04:55:09;5.00;99.90
79049;DHT22;68680;50.764;6.120;2024-02-26T04:57:35;5.00;99.90
79049;DHT22;68680;50.764;6.120;2024-02-26T05:00:00;5.00;99.90
79049;DHT22;68680;50.764;6.120;2024-02-26T05:02:26;5.00;99.90
79049;DHT22;68680;50.764;6.120;2024-02-26T05:04:52;4.90;99.90
79049;DHT22;68680;50.764;6.120;2024-02-26T05:07:18;5.00;99.90
79049;DHT22;68680;50.764;6.120;2024-02-26T05:09:44;5.00;99.90
79049;DHT22;68680;50.764;6.120;2024-02-26T05:12:12;4.90;99.90
79049;DHT22;68680;50.764;6.120;2024-02-26T05:14:37;5.00;99.90
79049;DHT22;68680;50.764;6.120;2024-02-26T05:17:03;5.00;99.90
79049;DHT22;68680;50.764;6.120;2024-02-26T05:19:29;5.00;99.90
79049;DHT22;68680;50.764;6.120;2024-02-26T05:21:55;5.00;99.90
79049;DHT22;68680;50.764;6.120;2024-02-26T05:24:20;5.00;99.90
79049;DHT22;68680;50.764;6.120;2024-02-26T05:26:46;5.00;99.90
79049;DHT22;68680;50.764;6.120;2024-02-26T05:29:13;5.00;99.90
79049;DHT22;68680;50.764;6.120;2024-02-26T05:31:41;5.00;99.90
79049;DHT22;68680;50.764;6.120;2024-02-26T05:34:07;5.00;99.90
79049;DHT22;68680;50.764;6.120;2024-02-26T05:36:33;5.10;99.90
79049;DHT22;68680;50.764;6.120;2024-02-26T05:38:59;5.10;99.90
79049;DHT22;68680;50.764;6.120;2024-02-26T05:41:25;5.10;99.90
79049;DHT22;68680;50.764;6.120;2024-02-26T05:43:51;5.10;99.90
79049;DHT22;68680;50.764;6.120;2024-02-26T05:46:18;5.10;99.90
79049;DHT22;68680;50.764;6.120;2024-02-26T05:48:44;5.10;99.90
79049;DHT22;68680;50.764;6.120;2024-02-26T05:51:10;5.10;99.90
79049;DHT22;68680;50.764;6.120;2024-02-26T05:53:35;5.10;99.90
79049;DHT22;68680;50.764;6.120;2024-02-26T05:56:01;5.10;99.90
79049;DHT22;68680;50.764;6.120;2024-02-26T05:58:27;5.10;99.90
79049;DHT22;68680;50.764;6.120;2024-02-26T06:00:53;5.20;99.90
79049;DHT22;68680;50.764;6.120;2024-02-26T06:03:20;5.20;99.90
79049;DHT22;68680;50.764;6.120;2024-02-26T06:05:46;5.10;99.90
79049;DHT22;68680;50.764;6.120;2024-02-26T06:08:12;5.10;99.90
79049;DHT22;68680;50.764;6.120;2024-02-26T06:10:37;5.10;99.90
79049;DHT22;68680;50.764;6.120;2024-02-26T06:13:04;5.10;99.90
79049;DHT22;68680;50.764;6.120;2024-02-26T06:15:30;5.10;99.90
79049;DHT22;68680;50.764;6.120;2024-02-26T06:17:56;5.10;99.90
79049;DHT22;68680;50.764;6.120;2024-02-26T06:20:23;5.10;99.90
79049;DHT22;68680;50.764;6.120;2024-02-26T06:22:48;5.10;99.90
79049;DHT22;68680;50.764;6.120;2024-02-26T06:25:14;5.20;99.90
79049;DHT22;68680;50.764;6.120;2024-02-26T06:27:40;5.10;99.90
79049;DHT22;68680;50.764;6.120;2024-02-26T06:30:07;5.20;99.90
79049;DHT22;68680;50.764;6.120;2024-02-26T06:32:33;5.20;99.90
79049;DHT22;68680;50.764;6.120;2024-02-26T06:34:59;5.20;99.90
79049;DHT22;68680;50.764;6.120;2024-02-26T06:37:26;5.20;99.90
79049;DHT22;68680;50.764;6.120;2024-02-26T06:39:52;5.20;99.90
79049;DHT22;68680;50.764;6.120;2024-02-26T06:42:17;5.20;99.90
79049;DHT22;68680;50.764;6.120;2024-02-26T06:44:43;5.20;99.90
79049;DHT22;68680;50.764;6.120;2024-02-26T06:47:09;5.20;99.90
79049;DHT22;68680;50.764;6.120;2024-02-26T06:49:35;5.20;99.90
79049;DHT22;68680;50.764;6.120;2024-02-26T06:52:00;5.20;99.90
79049;DHT22;68680;50.764;6.120;2024-02-26T06:54:28;5.30;99.90
79049;DHT22;68680;50.764;6.120;2024-02-26T06:56:53;5.20;99.90
79049;DHT22;68680;50.764;6.120;2024-02-26T06:59:19;5.30;99.90
79049;DHT22;68680;50.764;6.120;2024-02-26T07:01:45;5.30;99.90
79049;DHT22;68680;50.764;6.120;2024-02-26T07:04:11;5.30;99.90
79049;DHT22;68680;50.764;6.120;2024-02-26T07:06:37;5.30;99.90
79049;DHT22;68680;50.764;6.120;2024-02-26T07:09:02;5.30;99.90
79049;DHT22;68680;50.764;6.120;2024-02-26T07:11:30;5.30;99.90
79049;DHT22;68680;50.764;6.120;2024-02-26T07:13:55;5.30;99.90
79049;DHT22;68680;50.764;6.120;2024-02-26T07:16:21;5.30;99.90
79049;DHT22;68680;50.764;6.120;2024-02-26T07:18:47;5.30;99.90
79049;DHT22;68680;50.764;6.120;2024-02-26T07:21:13;5.30;99.90
79049;DHT22;68680;50.764;6.120;2024-02-26T07:23:38;5.30;99.90
79049;DHT22;68680;50.764;6.120;2024-02-26T07:26:04;5.30;99.90
79049;DHT22;68680;50.764;6.120;2024-02-26T07:28:31;5.40;99.90
79049;DHT22;68680;50.764;6.120;2024-02-26T07:30:57;5.30;99.90
79049;DHT22;68680;50.764;6.120;2024-02-26T07:33:23;5.30;99.90
79049;DHT22;68680;50.764;6.120;2024-02-26T07:35:48;5.40;99.90
79049;DHT22;68680;50.764;6.120;2024-02-26T07:38:14;5.30;99.90
79049;DHT22;68680;50.764;6.120;2024-02-26T07:40:40;5.30;99.90
79049;DHT22;68680;50.764;6.120;2024-02-26T07:43:06;5.40;99.90
79049;DHT22;68680;50.764;6.120;2024-02-26T07:45:33;5.40;99.90
79049;DHT22;68680;50.764;6.120;2024-02-26T07:47:58;5.30;99.90
79049;DHT22;68680;50.764;6.120;2024-02-26T07:50:24;5.40;99.90
79049;DHT22;68680;50.764;6.120;2024-02-26T07:52:50;5.30;99.90
79049;DHT22;68680;50.764;6.120;2024-02-26T07:55:16;5.30;99.90
79049;DHT22;68680;50.764;6.120;2024-02-26T07:57:42;5.30;99.90
79049;DHT22;68680;50.764;6.120;2024-02-26T08:00:09;5.40;99.90
79049;DHT22;68680;50.764;6.120;2024-02-26T08:02:37;5.40;99.90
79049;DHT22;68680;50.764;6.120;2024-02-26T08:05:03;5.40;99.90
79049;DHT22;68680;50.764;6.120;2024-02-26T08:07:29;5.40;99.90
79049;DHT22;68680;50.764;6.120;2024-02-26T08:09:55;5.40;99.90
79049;DHT22;68680;50.764;6.120;2024-02-26T08:12:21;5.40;99.90
79049;DHT22;68680;50.764;6.120;2024-02-26T08:14:46;5.50;99.90
79049;DHT22;68680;50.764;6.120;2024-02-26T08:17:12;5.50;99.90
79049;DHT22;68680;50.764;6.120;2024-02-26T08:19:39;5.50;99.90
79049;DHT22;68680;50.764;6.120;2024-02-26T08:22:05;5.50;99.90
79049;DHT22;68680;50.764;6.120;2024-02-26T08:24:31;5.50;99.90
79049;DHT22;68680;50.764;6.120;2024-02-26T08:26:57;5.50;99.90
79049;DHT22;68680;50.764;6.120;2024-02-26T08:29:22;5.50;99.90
79049;DHT22;68680;50.764;6.120;2024-02-26T08:31:48;5.50;99.90
79049;DHT22;68680;50.764;6.120;2024-02-26T08:34:14;5.50;99.90
79049;DHT22;68680;50.764;6.120;2024-02-26T08:36:41;5.50;99.90
79049;DHT22;68680;50.764;6.120;2024-02-26T08:39:07;5.50;99.90
79049;DHT22;68680;50.764;6.120;2024-02-26T08:41:32;5.50;99.90
79049;DHT22;68680;50.764;6.120;2024-02-26T08:43:58;5.50;99.90
79049;DHT22;68680;50.764;6.120;2024-02-26T08:46:24;5.50;99.90
79049;DHT22;68680;50.764;6.120;2024-02-26T08:48:50;5.50;99.90
79049;DHT22;68680;50.764;6.120;2024-02-26T08:51:16;5.50;99.90
79049;DHT22;68680;50.764;6.120;2024-02-26T08:53:43;5.60;99.90
79049;DHT22;68680;50.764;6.120;2024-02-26T08:56:08;5.60;99.90
79049;DHT22;68680;50.764;6.120;2024-02-26T08:58:34;5.50;99.90
79049;DHT22;68680;50.764;6.120;2024-02-26T09:01:00;5.50;99.90
79049;DHT22;68680;50.764;6.120;2024-02-26T09:03:26;5.50;99.90
79049;DHT22;68680;50.764;6.120;2024-02-26T09:05:51;5.50;99.90
79049;DHT22;68680;50.764;6.120;2024-02-26T09:08:17;5.50;99.90
79049;DHT22;68680;50.764;6.120;2024-02-26T09:10:44;5.50;99.90
79049;DHT22;68680;50.764;6.120;2024-02-26T09:13:10;5.50;99.90
79049;DHT22;68680;50.764;6.120;2024-02-26T09:15:36;5.50;99.90
79049;DHT22;68680;50.764;6.120;2024-02-26T09:18:02;5.50;99.90
79049;DHT22;68680;50.764;6.120;2024-02-26T09:20:28;5.60;99.90
79049;DHT22;68680;50.764;6.120;2024-02-26T09:22:53;5.50;99.90
79049;DHT22;68680;50.764;6.120;2024-02-26T09:25:19;5.50;99.90
79049;DHT22;68680;50.764;6.120;2024-02-26T09:27:48;5.50;99.90
79049;DHT22;68680;50.764;6.120;2024-02-26T09:30:14;5.40;99.90
79049;DHT22;68680;50.764;6.120;2024-02-26T09:32:40;5.40;99.90
79049;DHT22;68680;50.764;6.120;2024-02-26T09:35:06;5.40;99.90
79049;DHT22;68680;50.764;6.120;2024-02-26T09:37:33;5.40;99.90
79049;DHT22;68680;50.764;6.120;2024-02-26T09:39:59;5.40;99.90
79049;DHT22;68680;50.764;6.120;2024-02-26T09:42:26;5.40;99.90
79049;DHT22;68680;50.764;6.120;2024-02-26T09:44:54;5.40;99.90
79049;DHT22;68680;50.764;6.120;2024-02-26T09:47:21;5.40;99.90
79049;DHT22;68680;50.764;6.120;2024-02-26T09:49:49;5.40;99.90
79049;DHT22;68680;50.764;6.120;2024-02-26T09:52:19;5.50;99.90
79049;DHT22;68680;50.764;6.120;2024-02-26T09:54:47;5.50;99.90
79049;DHT22;68680;50.764;6.120;2024-02-26T09:57:14;5.50;99.90
79049;DHT22;68680;50.764;6.120;2024-02-26T09:59:41;5.50;99.90
79049;DHT22;68680;50.764;6.120;2024-02-26T10:02:12;5.60;99.90
79049;DHT22;68680;50.764;6.120;2024-02-26T10:04:39;5.60;99.90
79049;DHT22;68680;50.764;6.120;2024-02-26T10:07:10;5.70;99.90
79049;DHT22;68680;50.764;6.120;2024-02-26T10:09:37;5.70;99.90
79049;DHT22;68680;50.764;6.120;2024-02-26T10:12:03;5.80;99.90
79049;DHT22;68680;50.764;6.120;2024-02-26T10:14:30;5.80;99.90
79049;DHT22;68680;50.764;6.120;2024-02-26T10:16:56;5.80;99.90
79049;DHT22;68680;50.764;6.120;2024-02-26T10:19:27;5.90;99.90
79049;DHT22;68680;50.764;6.120;2024-02-26T10:21:56;5.90;99.90
79049;DHT22;68680;50.764;6.120;2024-02-26T10:24:23;5.90;99.90
79049;DHT22;68680;50.764;6.120;2024-02-26T10:26:49;6.00;99.90
79049;DHT22;68680;50.764;6.120;2024-02-26T10:29:14;6.00;99.90
79049;DHT22;68680;50.764;6.120;2024-02-26T10:31:42;6.00;99.90
79049;DHT22;68680;50.764;6.120;2024-02-26T10:34:08;6.00;99.90
79049;DHT22;68680;50.764;6.120;2024-02-26T10:36:35;6.00;99.90
79049;DHT22;68680;50.764;6.120;2024-02-26T10:39:02;6.10;99.90
79049;DHT22;68680;50.764;6.120;2024-02-26T10:41:30;6.10;99.90
79049;DHT22;68680;50.764;6.120;2024-02-26T10:43:56;6.20;99.90
79049;DHT22;68680;50.764;6.120;2024-02-26T10:46:21;6.20;99.90
79049;DHT22;68680;50.764;6.120;2024-02-26T10:48:50;6.20;99.90
79049;DHT22;68680;50.764;6.120;2024-02-26T10:51:16;6.30;99.90
79049;DHT22;68680;50.764;6.120;2024-02-26T10:53:48;6.30;99.90
79049;DHT22;68680;50.764;6.120;2024-02-26T10:56:17;6.30;99.90
79049;DHT22;68680;50.764;6.120;2024-02-26T10:58:45;6.30;99.90
79049;DHT22;68680;50.764;6.120;2024-02-26T11:01:12;6.30;99.90
79049;DHT22;68680;50.764;6.120;2024-02-26T11:03:39;6.30;99.90
79049;DHT22;68680;50.764;6.120;2024-02-26T11:06:06;6.40;99.90
79049;DHT22;68680;50.764;6.120;2024-02-26T11:08:32;6.50;99.90
79049;DHT22;68680;50.764;6.120;2024-02-26T11:10:59;6.50;99.90
79049;DHT22;68680;50.764;6.120;2024-02-26T11:13:28;6.60;99.90
79049;DHT22;68680;50.764;6.120;2024-02-26T11:15:56;6.70;99.90
79049;DHT22;68680;50.764;6.120;2024-02-26T11:18:22;6.70;99.90
79049;DHT22;68680;50.764;6.120;2024-02-26T11:20:51;6.70;99.90
79049;DHT22;68680;50.764;6.120;2024-02-26T11:23:17;6.70;99.90
79049;DHT22;68680;50.764;6.120;2024-02-26T11:25:43;6.60;99.90
79049;DHT22;68680;50.764;6.120;2024-02-26T11:28:14;6.60;99.90
79049;DHT22;68680;50.764;6.120;2024-02-26T11:30:46;6.50;99.90
79049;DHT22;68680;50.764;6.120;2024-02-26T11:33:15;6.50;99.90
79049;DHT22;68680;50.764;6.120;2024-02-26T11:35:41;6.50;99.90
79049;DHT22;68680;50.764;6.120;2024-02-26T11:38:08;6.30;99.90
79049;DHT22;68680;50.764;6.120;2024-02-26T11:40:43;6.40;99.90
79049;DHT22;68680;50.764;6.120;2024-02-26T11:43:10;6.30;99.90
79049;DHT22;68680;50.764;6.120;2024-02-26T11:45:51;6.30;99.90
79049;DHT22;68680;50.764;6.120;2024-02-26T11:48:20;6.30;99.90
79049;DHT22;68680;50.764;6.120;2024-02-26T11:50:48;6.20;99.90
79049;DHT22;68680;50.764;6.120;2024-02-26T11:53:22;6.20;99.90
79049;DHT22;68680;50.764;6.120;2024-02-26T11:55:51;6.10;99.90
79049;DHT22;68680;50.764;6.120;2024-02-26T11:58:53;6.10;99.90
79049;DHT22;68680;50.764;6.120;2024-02-26T12:01:38;6.10;99.90
79049;DHT22;68680;50.764;6.120;2024-02-26T12:04:06;6.10;99.90
79049;DHT22;68680;50.764;6.120;2024-02-26T12:06:43;6.10;99.90
79049;DHT22;68680;50.764;6.120;2024-02-26T12:09:10;6.10;99.90
79049;DHT22;68680;50.764;6.120;2024-02-26T12:11:37;6.10;99.90
79049;DHT22;68680;50.764;6.120;2024-02-26T12:14:05;6.10;99.90
79049;DHT22;68680;50.764;6.120;2024-02-26T12:16:37;6.10;99.90
79049;DHT22;68680;50.764;6.120;2024-02-26T12:19:07;6.10;99.90
79049;DHT22;68680;50.764;6.120;2024-02-26T12:21:35;6.10;99.90
79049;DHT22;68680;50.764;6.120;2024-02-26T12:24:19;6.20;99.90
79049;DHT22;68680;50.764;6.120;2024-02-26T12:26:46;6.10;99.90
79049;DHT22;68680;50.764;6.120;2024-02-26T12:29:13;6.10;99.90
79049;DHT22;68680;50.764;6.120;2024-02-26T12:31:40;6.20;99.90
79049;DHT22;68680;50.764;6.120;2024-02-26T12:34:07;6.30;99.90
79049;DHT22;68680;50.764;6.120;2024-02-26T12:36:34;6.30;99.90
79049;DHT22;68680;50.764;6.120;2024-02-26T12:39:00;6.20;99.90
79049;DHT22;68680;50.764;6.120;2024-02-26T12:41:26;6.20;99.90
79049;DHT22;68680;50.764;6.120;2024-02-26T12:43:53;6.20;99.90
79049;DHT22;68680;50.764;6.120;2024-02-26T12:46:20;6.20;99.90
79049;DHT22;68680;50.764;6.120;2024-02-26T12:48:46;6.20;99.90
79049;DHT22;68680;50.764;6.120;2024-02-26T12:51:13;6.20;99.90
79049;DHT22;68680;50.764;6.120;2024-02-26T12:53:41;6.20;99.90
79049;DHT22;68680;50.764;6.120;2024-02-26T12:56:07;6.30;99.90
79049;DHT22;68680;50.764;6.120;2024-02-26T12:58:35;6.20;99.90
79049;DHT22;68680;50.764;6.120;2024-02-26T13:01:04;6.30;99.90
79049;DHT22;68680;50.764;6.120;2024-02-26T13:03:33;6.30;99.90
79049;DHT22;68680;50.764;6.120;2024-02-26T13:06:00;6.30;99.90
79049;DHT22;68680;50.764;6.120;2024-02-26T13:08:26;6.30;99.90
79049;DHT22;68680;50.764;6.120;2024-02-26T13:10:52;6.40;99.90
79049;DHT22;68680;50.764;6.120;2024-02-26T13:13:18;6.50;99.90
79049;DHT22;68680;50.764;6.120;2024-02-26T13:15:44;6.50;99.90
79049;DHT22;68680;50.764;6.120;2024-02-26T13:18:11;6.60;99.90
79049;DHT22;68680;50.764;6.120;2024-02-26T13:20:39;6.60;99.90
79049;DHT22;68680;50.764;6.120;2024-02-26T13:23:06;6.70;99.90
79049;DHT22;68680;50.764;6.120;2024-02-26T13:25:33;6.70;99.90
79049;DHT22;68680;50.764;6.120;2024-02-26T13:28:08;6.70;99.90
79049;DHT22;68680;50.764;6.120;2024-02-26T13:30:34;6.60;99.90
79049;DHT22;68680;50.764;6.120;2024-02-26T13:33:07;6.60;99.90
79049;DHT22;68680;50.764;6.120;2024-02-26T13:35:33;6.60;99.90
79049;DHT22;68680;50.764;6.120;2024-02-26T13:38:00;6.50;99.90
79049;DHT22;68680;50.764;6.120;2024-02-26T13:40:26;6.60;99.90
79049;DHT22;68680;50.764;6.120;2024-02-26T13:42:52;6.60;99.90
79049;DHT22;68680;50.764;6.120;2024-02-26T13:45:18;6.50;99.90
79049;DHT22;68680;50.764;6.120;2024-02-26T13:47:44;6.50;99.90
79049;DHT22;68680;50.764;6.120;2024-02-26T13:50:09;6.50;99.90
79049;DHT22;68680;50.764;6.120;2024-02-26T13:52:35;6.50;99.90
79049;DHT22;68680;50.764;6.120;2024-02-26T13:55:03;6.50;99.90
79049;DHT22;68680;50.764;6.120;2024-02-26T13:57:29;6.50;99.90
79049;DHT22;68680;50.764;6.120;2024-02-26T13:59:55;6.40;99.90
79049;DHT22;68680;50.764;6.120;2024-02-26T14:02:21;6.40;99.90
79049;DHT22;68680;50.764;6.120;2024-02-26T14:04:47;6.40;99.90
79049;DHT22;68680;50.764;6.120;2024-02-26T14:07:13;6.40;99.90
79049;DHT22;68680;50.764;6.120;2024-02-26T14:09:39;6.40;99.90
79049;DHT22;68680;50.764;6.120;2024-02-26T14:12:07;6.40;99.90
79049;DHT22;68680;50.764;6.120;2024-02-26T14:14:33;6.30;99.90
79049;DHT22;68680;50.764;6.120;2024-02-26T14:16:59;6.30;99.90
79049;DHT22;68680;50.764;6.120;2024-02-26T14:19:26;6.30;99.90
79049;DHT22;68680;50.764;6.120;2024-02-26T14:21:52;6.40;99.90
79049;DHT22;68680;50.764;6.120;2024-02-26T14:24:18;6.30;99.90
79049;DHT22;68680;50.764;6.120;2024-02-26T14:26:43;6.40;99.90
79049;DHT22;68680;50.764;6.120;2024-02-26T14:29:11;6.40;99.90
79049;DHT22;68680;50.764;6.120;2024-02-26T14:31:36;6.40;99.90
79049;DHT22;68680;50.764;6.120;2024-02-26T14:34:02;6.30;99.90
79049;DHT22;68680;50.764;6.120;2024-02-26T14:36:28;6.40;99.90
79049;DHT22;68680;50.764;6.120;2024-02-26T14:38:54;6.40;99.90
79049;DHT22;68680;50.764;6.120;2024-02-26T14:41:20;6.30;99.90
79049;DHT22;68680;50.764;6.120;2024-02-26T14:43:46;6.40;99.90
79049;DHT22;68680;50.764;6.120;2024-02-26T14:46:14;6.30;99.90
79049;DHT22;68680;50.764;6.120;2024-02-26T14:48:40;6.30;99.90
79049;DHT22;68680;50.764;6.120;2024-02-26T14:51:06;6.30;99.90
79049;DHT22;68680;50.764;6.120;2024-02-26T14:53:31;6.30;99.90
79049;DHT22;68680;50.764;6.120;2024-02-26T14:55:57;6.30;99.90
79049;DHT22;68680;50.764;6.120;2024-02-26T14:58:23;6.20;99.90
79049;DHT22;68680;50.764;6.120;2024-02-26T15:00:49;6.20;99.90
79049;DHT22;68680;50.764;6.120;2024-02-26T15:03:16;6.10;99.90
79049;DHT22;68680;50.764;6.120;2024-02-26T15:05:42;6.20;99.90
79049;DHT22;68680;50.764;6.120;2024-02-26T15:08:08;6.20;99.90
79049;DHT22;68680;50.764;6.120;2024-02-26T15:10:33;6.20;99.90
79049;DHT22;68680;50.764;6.120;2024-02-26T15:12:59;6.20;99.90
79049;DHT22;68680;50.764;6.120;2024-02-26T15:15:25;6.20;99.90
79049;DHT22;68680;50.764;6.120;2024-02-26T15:17:51;6.20;99.90
79049;DHT22;68680;50.764;6.120;2024-02-26T15:20:19;6.10;99.90
79049;DHT22;68680;50.764;6.120;2024-02-26T15:22:44;6.10;99.90
79049;DHT22;68680;50.764;6.120;2024-02-26T15:25:10;6.10;99.90
79049;DHT22;68680;50.764;6.120;2024-02-26T15:27:36;6.00;99.90
79049;DHT22;68680;50.764;6.120;2024-02-26T15:30:02;6.10;99.90
79049;DHT22;68680;50.764;6.120;2024-02-26T15:32:28;6.10;99.90
79049;DHT22;68680;50.764;6.120;2024-02-26T15:34:54;6.10;99.90
79049;DHT22;68680;50.764;6.120;2024-02-26T15:37:22;6.10;99.90
79049;DHT22;68680;50.764;6.120;2024-02-26T15:39:49;6.10;99.90